Time;durP1;ratioP1;P1;durP2;ratioP2;P2;SDS_P1;SDS_P2;PMS_P1;PMS_P2;Temp;Humidity;BMP_temperature;BMP_pressure;BME280_temperature;BME280_humidity;BME280_pressure;Samples;Min_cycle;Max_cycle;Signal;HPM_P1;HPM_P2
2022/08/10 00:00:19;;;;;;;6.88;3.38;;;;;;;21.62;46.07;94102.47;5062400;28;20212;-78
2022/08/10 00:02:48;;;;;;;5.50;3.92;;;;;;;21.62;45.73;94110.59;5063663;28;20192;-77
2022/08/10 00:05:14;;;;;;;6.13;3.90;;;;;;;21.61;45.81;94102.81;5065802;28;20323;-77
2022/08/10 00:07:39;;;;;;;6.70;3.63;;;;;;;21.67;45.94;94109.44;5066076;28;20028;-77
2022/08/10 00:10:06;;;;;;;6.85;3.00;;;;;;;21.69;45.88;94103.66;5066148;28;20035;-77
2022/08/10 00:12:31;;;;;;;6.57;3.40;;;;;;;21.73;44.71;94107.16;5065923;28;20033;-77
2022/08/10 00:14:58;;;;;;;7.28;3.30;;;;;;;21.73;45.06;94113.38;5065683;28;20032;-77
2022/08/10 00:17:24;;;;;;;7.22;3.53;;;;;;;21.72;45.05;94103.69;5065676;28;20048;-77
2022/08/10 00:19:50;;;;;;;5.10;3.03;;;;;;;21.70;44.99;94105.22;5065973;28;20024;-77
2022/08/10 00:22:15;;;;;;;4.32;2.95;;;;;;;21.68;44.77;94105.59;5065655;28;20211;-77
2022/08/10 00:24:41;;;;;;;7.75;3.25;;;;;;;21.65;45.03;94103.63;5065697;28;20219;-77
2022/08/10 00:27:06;;;;;;;5.50;3.38;;;;;;;21.62;45.14;94102.47;5065644;28;20211;-77
2022/08/10 00:29:32;;;;;;;6.60;3.15;;;;;;;21.63;44.94;94098.56;5065698;28;20024;-77
2022/08/10 00:31:57;;;;;;;5.25;3.13;;;;;;;21.61;44.85;94103.59;5065492;28;20322;-77
2022/08/10 00:34:23;;;;;;;10.38;3.65;;;;;;;21.61;44.78;94100.88;5065588;28;20044;-77
2022/08/10 00:36:48;;;;;;;5.13;3.17;;;;;;;21.64;44.65;94096.66;5065565;28;20032;-77
2022/08/10 00:39:14;;;;;;;9.45;3.35;;;;;;;21.62;44.71;94102.47;5065438;28;20032;-77
2022/08/10 00:41:39;;;;;;;8.23;2.97;;;;;;;21.63;44.64;94098.56;5065300;28;20025;-77
2022/08/10 00:44:05;;;;;;;7.78;2.97;;;;;;;21.64;44.59;94093.94;5065198;28;20062;-77
2022/08/10 00:46:30;;;;;;;6.35;3.00;;;;;;;21.63;44.92;94097.81;5065300;28;20074;-77
2022/08/10 00:48:56;;;;;;;8.73;3.20;;;;;;;21.61;45.26;94105.53;5065251;28;20048;-77
2022/08/10 00:51:21;;;;;;;4.88;3.08;;;;;;;21.61;45.96;94105.53;5065277;28;20250;-78
2022/08/10 00:53:47;;;;;;;5.57;3.03;;;;;;;21.63;45.91;94108.66;5065128;28;20341;-78
2022/08/10 00:56:12;;;;;;;6.15;3.78;;;;;;;21.65;46.51;94106.34;5064915;28;20354;-78
2022/08/10 00:58:38;;;;;;;6.55;3.08;;;;;;;21.66;46.44;94116.03;5065140;28;20045;-78
2022/08/10 01:01:04;;;;;;;10.38;3.75;;;;;;;21.64;45.86;94105.56;5063674;28;20041;-78
2022/08/10 01:03:29;;;;;;;8.90;3.72;;;;;;;21.67;45.28;94117.59;5065029;28;20055;-78
2022/08/10 01:06:11;;;;;;;5.22;3.53;;;;;;;21.68;45.53;94116.44;5065048;28;20013;-78
2022/08/10 01:08:36;;;;;;;8.73;3.20;;;;;;;21.64;45.74;94104.81;5064720;28;20017;-77
2022/08/10 01:11:10;;;;;;;7.78;4.30;;;;;;;21.61;46.12;94116.38;5064583;28;20056;-78
2022/08/10 01:13:53;;;;;;;8.43;3.75;;;;;;;21.56;46.33;94103.19;5064760;28;20021;-78
2022/08/10 01:16:31;;;;;;;6.10;3.38;;;;;;;21.53;46.54;94106.66;5064472;28;20235;-78
2022/08/10 01:19:11;;;;;;;7.68;3.75;;;;;;;21.52;47.14;94113.25;5064644;28;20261;-78
2022/08/10 01:22:05;;;;;;;10.15;3.85;;;;;;;21.50;46.30;94110.13;5064525;28;20021;-78
2022/08/10 01:25:02;;;;;;;7.20;3.88;;;;;;;21.43;46.18;94111.63;5064620;28;20029;-78
2022/08/10 01:27:56;;;;;;;5.75;3.50;;;;;;;21.31;46.10;94111.09;5059987;28;20100;-77
2022/08/10 01:30:26;;;;;;;7.75;3.92;;;;;;;21.23;46.28;94107.56;5064610;28;20051;-76
2022/08/10 01:33:08;;;;;;;6.72;3.50;;;;;;;21.20;46.46;94114.50;5064345;28;20024;-77
2022/08/10 01:35:41;;;;;;;9.90;3.38;;;;;;;21.16;46.72;94107.50;5064091;28;20357;-76
2022/08/10 01:38:23;;;;;;;6.13;3.88;;;;;;;21.20;47.01;94108.31;5064395;28;20044;-77
2022/08/10 01:41:03;;;;;;;;;;;;;;;21.17;47.02;94100.94;5064638;28;20084;-76
2022/08/10 01:43:32;;;;;;;6.15;3.35;;;;;;;21.15;47.43;94097.81;5064290;28;19947;-76
2022/08/10 01:46:02;;;;;;;4.60;2.90;;;;;;;21.11;47.28;94100.50;5064060;28;20024;-76
2022/08/10 01:48:35;;;;;;;7.68;3.72;;;;;;;21.13;47.32;94108.25;5063961;28;20021;-77
2022/08/10 01:51:11;;;;;;;9.68;3.35;;;;;;;21.14;46.90;94104.38;5063967;28;20023;-76
2022/08/10 01:54:02;;;;;;;9.35;3.55;;;;;;;21.06;47.40;94097.34;5062862;28;20096;-76
2022/08/10 01:56:31;;;;;;;5.18;3.03;;;;;;;21.02;46.45;94102.72;5063965;28;20029;-77
2022/08/10 01:59:06;;;;;;;6.03;3.28;;;;;;;20.96;46.96;94098.78;5062812;28;20033;-76
2022/08/10 02:01:40;;;;;;;12.25;3.20;;;;;;;20.95;47.54;94092.59;5063873;28;20017;-76
2022/08/10 02:04:08;;;;;;;5.70;3.45;;;;;;;20.92;47.91;94095.28;5063808;28;20036;-76
2022/08/10 02:06:44;;;;;;;5.63;3.22;;;;;;;20.91;48.21;94091.78;5063764;28;20044;-76
2022/08/10 02:09:15;;;;;;;8.82;3.03;;;;;;;20.89;47.86;94094.09;5063675;28;20272;-76
2022/08/10 02:11:43;;;;;;;3.70;2.67;;;;;;;20.88;47.23;94086.34;5063717;28;20196;-76
2022/08/10 02:14:12;;;;;;;4.45;2.80;;;;;;;20.88;46.87;94099.88;5063506;28;20021;-76
2022/08/10 02:16:41;;;;;;;9.13;3.40;;;;;;;20.87;46.48;94085.56;5063257;28;20045;-76
2022/08/10 02:19:08;;;;;;;5.35;3.03;;;;;;;20.93;46.10;94091.44;5063588;28;20025;-77
2022/08/10 02:21:36;;;;;;;5.53;2.67;;;;;;;20.98;46.38;94094.56;5063450;28;20025;-76
2022/08/10 02:24:03;;;;;;;5.93;2.55;;;;;;;21.00;46.19;94086.84;5063400;28;20033;-76
2022/08/10 02:26:29;;;;;;;5.95;2.67;;;;;;;21.01;46.01;94090.34;5062879;28;20025;-76
2022/08/10 02:28:55;;;;;;;5.47;3.10;;;;;;;21.02;46.39;94081.84;5063467;28;20047;-76
2022/08/10 02:31:23;;;;;;;3.60;2.75;;;;;;;21.03;46.13;94088.81;5063345;28;20151;-77
2022/08/10 02:33:52;;;;;;;8.27;2.92;;;;;;;21.01;46.10;94093.81;5063245;28;20028;-77
2022/08/10 02:36:19;;;;;;;7.25;3.00;;;;;;;21.00;45.94;94097.69;5063244;28;20029;-76
2022/08/10 02:38:51;;;;;;;5.80;3.00;;;;;;;21.04;45.75;94093.09;5063103;28;20078;-77
2022/08/10 02:41:22;;;;;;;7.63;2.88;;;;;;;21.08;45.84;94103.16;5062945;28;20037;-76
2022/08/10 02:43:53;;;;;;;4.78;3.00;;;;;;;21.08;46.07;94092.31;5063055;28;20223;-77
2022/08/10 02:46:33;;;;;;;6.88;2.95;;;;;;;21.04;46.40;94095.78;5063051;28;20025;-76
2022/08/10 02:49:03;;;;;;;4.75;3.00;;;;;;;21.10;45.84;94095.44;5063051;28;20024;-76
2022/08/10 02:51:43;;;;;;;8.77;3.25;;;;;;;21.00;46.09;94099.59;5061788;28;20051;-77
2022/08/10 02:54:16;;;;;;;4.95;3.15;;;;;;;20.94;46.71;94106.50;5062941;28;20228;-78
2022/08/10 02:57:05;;;;;;;5.40;3.38;;;;;;;20.91;47.13;94107.28;5062867;28;20032;-77
2022/08/10 02:59:33;;;;;;;4.63;3.13;;;;;;;20.88;47.42;94103.34;5062780;28;20090;-77
2022/08/10 03:02:03;;;;;;;9.48;2.95;;;;;;;20.87;47.55;94103.75;5062835;28;20323;-77
2022/08/10 03:04:40;;;;;;;6.88;3.22;;;;;;;20.82;47.55;94105.66;5062865;28;20025;-77
2022/08/10 03:07:11;;;;;;;4.95;3.40;;;;;;;20.82;48.55;94104.84;5062883;28;20024;-77
2022/08/10 03:09:39;;;;;;;5.30;3.83;;;;;;;20.80;48.71;94102.53;5062598;28;20021;-77
2022/08/10 03:12:07;;;;;;;6.80;3.78;;;;;;;20.75;49.32;94104.78;5062727;28;20105;-77
2022/08/10 03:14:36;;;;;;;12.07;3.85;;;;;;;20.77;50.27;94114.09;5062614;28;20063;-77
2022/08/10 03:17:02;;;;;;;6.90;3.83;;;;;;;20.74;50.90;94108.63;5062604;28;20108;-77
2022/08/10 03:19:30;;;;;;;5.30;3.47;;;;;;;20.73;50.75;94109.81;5062851;28;20055;-77
2022/08/10 03:21:57;;;;;;;6.10;3.97;;;;;;;20.65;51.24;94108.94;5062666;28;20035;-77
2022/08/10 03:24:26;;;;;;;7.55;4.43;;;;;;;20.59;51.74;94105.78;5062733;28;20036;-77
2022/08/10 03:26:53;;;;;;;6.78;3.70;;;;;;;20.56;51.37;94108.44;5062610;28;20021;-76
2022/08/10 03:29:21;;;;;;;5.53;3.85;;;;;;;20.53;51.58;94112.66;5062557;28;20315;-77
2022/08/10 03:31:48;;;;;;;7.35;4.10;;;;;;;20.53;51.87;94109.16;5062540;28;20237;-77
2022/08/10 03:34:15;;;;;;;8.80;4.30;;;;;;;20.55;52.29;94115.75;5062458;28;20017;-77
2022/08/10 03:36:42;;;;;;;7.20;4.47;;;;;;;20.55;52.29;94113.06;5062493;28;20323;-77
2022/08/10 03:39:08;;;;;;;6.65;3.75;;;;;;;20.54;52.66;94114.22;5066223;28;20329;-76
2022/08/10 03:41:36;;;;;;;10.23;4.63;;;;;;;20.57;52.64;94110.75;5066333;28;20021;-76
2022/08/10 03:44:04;;;;;;;8.48;4.45;;;;;;;20.62;52.06;94117.81;5066562;28;20017;-77
2022/08/10 03:46:32;;;;;;;11.43;4.22;;;;;;;20.63;52.24;94122.84;5066582;28;20051;-76
2022/08/10 03:49:01;;;;;;;6.75;4.28;;;;;;;20.64;52.45;94124.41;5066455;28;20027;-77
2022/08/10 03:51:27;;;;;;;9.43;4.25;;;;;;;20.63;52.33;94125.56;5066462;28;20112;-76
2022/08/10 03:53:53;;;;;;;9.40;4.32;;;;;;;20.59;52.37;94124.72;5066385;28;20020;-77
2022/08/10 03:56:19;;;;;;;6.43;3.80;;;;;;;20.57;52.46;94135.13;5066095;28;20215;-77
2022/08/10 03:58:45;;;;;;;5.70;3.80;;;;;;;20.59;52.12;94124.72;5066074;28;20021;-78
2022/08/10 04:01:12;;;;;;;5.70;3.95;;;;;;;20.57;52.35;94132.41;5066126;28;20029;-77
2022/08/10 04:03:38;;;;;;;5.57;4.05;;;;;;;20.57;52.02;94135.13;5065994;28;20025;-78
2022/08/10 04:06:04;;;;;;;5.35;3.88;;;;;;;20.62;51.13;94134.84;5065996;28;20056;-77
2022/08/10 04:08:30;;;;;;;5.70;3.80;;;;;;;20.61;51.23;94132.50;5064921;28;20025;-78
2022/08/10 04:10:56;;;;;;;6.38;4.03;;;;;;;20.61;51.94;94143.31;5065971;28;20029;-77
2022/08/10 04:13:21;;;;;;;8.07;3.97;;;;;;;20.64;51.51;94134.47;5065780;28;20021;-77
2022/08/10 04:15:47;;;;;;;5.63;4.07;;;;;;;20.62;51.60;94134.84;5065622;28;20064;-78
2022/08/10 04:18:12;;;;;;;6.38;4.28;;;;;;;20.65;52.32;94136.03;5065687;28;20319;-78
2022/08/10 04:20:44;;;;;;;15.55;5.22;;;;;;;20.68;52.71;94131.78;5066036;28;20021;-77
2022/08/10 04:23:20;;;;;;;8.10;3.72;;;;;;;20.71;52.27;94137.25;5065837;28;20029;-77
2022/08/10 04:25:46;;;;;;;5.35;3.88;;;;;;;20.73;52.41;94139.59;5065642;28;20013;-77
2022/08/10 04:28:12;;;;;;;8.73;4.43;;;;;;;20.77;52.71;94137.69;5065564;28;20052;-77
2022/08/10 04:30:40;;;;;;;6.63;3.72;;;;;;;20.81;52.57;94130.38;5065541;28;20021;-78
2022/08/10 04:33:07;;;;;;;6.07;4.25;;;;;;;20.78;52.62;94137.34;5065402;28;20031;-77
2022/08/10 04:35:34;;;;;;;6.43;4.18;;;;;;;20.78;53.25;94131.13;5065371;28;20025;-78
2022/08/10 04:38:01;;;;;;;8.32;4.55;;;;;;;20.79;53.53;94138.88;5065522;28;20016;-76
2022/08/10 04:40:27;;;;;;;8.38;4.55;;;;;;;20.79;53.53;94140.81;5065466;28;20318;-76
2022/08/10 04:42:53;;;;;;;11.77;5.53;;;;;;;20.76;54.18;94141.53;5065139;28;20017;-78
2022/08/10 04:45:19;;;;;;;13.93;5.18;;;;;;;20.81;54.75;94139.28;5065253;28;20211;-76
2022/08/10 04:47:44;;;;;;;10.23;4.80;;;;;;;20.85;54.91;94142.03;5065133;28;20025;-76
2022/08/10 04:50:10;;;;;;;16.77;5.40;;;;;;;20.82;54.96;94148.19;5065097;28;20017;-76
2022/08/10 04:52:36;;;;;;;9.57;4.55;;;;;;;20.82;55.55;94140.06;5065089;28;20109;-76
2022/08/10 04:55:01;;;;;;;11.85;5.47;;;;;;;20.88;56.00;94146.69;5065191;28;20044;-76
2022/08/10 04:57:27;;;;;;;10.52;5.15;;;;;;;20.87;55.80;94150.56;5065403;28;20059;-76
2022/08/10 04:59:52;;;;;;;9.90;5.38;;;;;;;20.85;56.07;94144.75;5065129;28;20040;-76
2022/08/10 05:02:18;;;;;;;11.23;5.07;;;;;;;20.84;55.67;94137.75;5065048;28;20024;-76
2022/08/10 05:04:43;;;;;;;8.50;5.38;;;;;;;20.90;55.88;94146.34;5064899;28;20020;-77
2022/08/10 05:07:12;;;;;;;15.35;4.95;;;;;;;20.83;56.23;94145.13;5064950;28;20055;-77
2022/08/10 05:09:38;;;;;;;11.45;5.03;;;;;;;20.79;56.40;94143.53;5064939;28;20025;-77
2022/08/10 05:12:05;;;;;;;11.20;4.70;;;;;;;20.88;56.42;94148.63;5064874;28;20017;-77
2022/08/10 05:14:30;;;;;;;12.02;5.53;;;;;;;20.86;56.41;94146.28;5063556;28;20021;-77
2022/08/10 05:16:56;;;;;;;7.75;5.07;;;;;;;20.86;57.99;94151.72;5064619;28;20032;-82
2022/08/10 05:19:21;;;;;;;9.18;4.63;;;;;;;20.85;57.67;94144.75;5064524;28;20032;-80
2022/08/10 05:21:46;;;;;;;7.32;4.78;;;;;;;21.01;58.71;94148.00;5064795;28;20028;-80
2022/08/10 05:24:12;;;;;;;10.27;4.90;;;;;;;21.13;57.70;94140.78;5064710;28;20364;-79
2022/08/10 05:26:37;;;;;;;14.02;5.47;;;;;;;21.26;57.75;94149.41;5064668;28;20020;-79
2022/08/10 05:29:03;;;;;;;14.38;5.88;;;;;;;21.29;56.83;94148.63;5064432;28;20135;-78
2022/08/10 05:31:31;;;;;;;14.07;5.38;;;;;;;21.28;56.16;94147.88;5064810;28;20017;-84
2022/08/10 05:33:57;;;;;;;10.50;6.03;;;;;;;21.24;57.15;94147.06;5063564;28;20023;-75
2022/08/10 05:36:23;;;;;;;15.82;6.80;;;;;;;21.23;57.61;94148.22;5064489;28;20108;-77
2022/08/10 05:38:48;;;;;;;14.40;6.55;;;;;;;21.21;57.86;94155.94;5064204;28;20028;-79
2022/08/10 05:41:15;;;;;;;9.18;5.47;;;;;;;21.17;57.64;94152.44;5063169;28;20096;-79
2022/08/10 05:43:42;;;;;;;8.15;5.90;;;;;;;21.16;58.25;94159.00;5063439;28;20315;-80
2022/08/10 05:46:07;;;;;;;8.85;5.68;;;;;;;21.15;58.37;94160.16;5064117;28;20366;-78
2022/08/10 05:48:35;;;;;;;15.60;6.47;;;;;;;21.07;58.27;94148.47;5064162;28;20057;-78
2022/08/10 05:51:01;;;;;;;12.20;6.32;;;;;;;21.09;58.72;94151.56;5064455;28;20017;-78
2022/08/10 05:53:26;;;;;;;11.07;6.43;;;;;;;21.11;58.59;94153.91;5063920;28;20023;-77
2022/08/10 05:55:53;;;;;;;13.48;6.20;;;;;;;21.14;58.25;94161.28;5063762;28;20021;-77
2022/08/10 05:58:18;;;;;;;11.68;6.63;;;;;;;21.20;58.32;94154.38;5063944;28;20071;-78
2022/08/10 06:00:45;;;;;;;21.85;6.72;;;;;;;21.23;59.15;94161.78;5063057;28;20313;-76
2022/08/10 06:03:15;;;;;;;9.35;6.18;;;;;;;21.27;59.01;94159.88;5063905;28;20021;-76
2022/08/10 06:05:43;;;;;;;13.65;6.97;;;;;;;21.27;59.34;94157.16;5063635;28;20035;-77
2022/08/10 06:08:31;;;;;;;8.63;6.57;;;;;;;21.28;59.58;94157.94;5063845;28;20062;-77
2022/08/10 06:11:00;;;;;;;10.93;7.15;;;;;;;21.29;59.43;94157.56;5064094;28;20307;-78
2022/08/10 06:16:14;;;;;;;15.82;8.20;;;;;;;21.31;59.08;94157.97;5063287;28;20078;-78
2022/08/10 06:18:41;;;;;;;14.65;7.45;;;;;;;21.31;59.78;94160.69;5063514;28;20227;-78
2022/08/10 06:21:08;;;;;;;14.13;7.35;;;;;;;21.40;58.85;94160.38;5063394;28;20426;-78
2022/08/10 06:23:35;;;;;;;12.02;6.80;;;;;;;21.40;58.38;94161.13;5063204;28;20024;-77
2022/08/10 06:26:01;;;;;;;12.55;7.65;;;;;;;21.41;59.32;94159.19;5063556;28;20092;-77
2022/08/10 06:28:29;;;;;;;10.88;7.10;;;;;;;21.41;58.96;94164.63;5063380;28;20024;-77
2022/08/10 06:30:57;;;;;;;13.40;7.85;;;;;;;21.48;58.65;94162.00;5063145;28;20077;-77
2022/08/10 06:33:25;;;;;;;10.65;7.45;;;;;;;21.51;58.72;94165.91;5063399;28;20029;-74
2022/08/10 06:35:54;;;;;;;11.20;7.82;;;;;;;21.62;58.65;94169.50;5063054;28;20035;-75
2022/08/10 06:38:22;;;;;;;12.75;7.68;;;;;;;21.62;58.42;94164.84;5062928;28;20025;-75
2022/08/10 06:40:52;;;;;;;17.17;8.23;;;;;;;21.63;56.98;94169.09;5063309;28;20025;-75
2022/08/10 06:43:20;;;;;;;13.35;7.72;;;;;;;21.66;57.33;94173.00;5063025;28;20095;-75
2022/08/10 06:45:52;;;;;;;17.73;9.18;;;;;;;21.71;58.19;94174.59;5062795;28;20316;-75
2022/08/10 06:48:23;;;;;;;;;;;;;;;21.73;58.07;94162.19;5063391;28;20075;-75
2022/08/10 06:50:53;;;;;;;17.50;8.83;;;;;;;21.66;57.69;94173.00;5063013;28;19963;-75
2022/08/10 06:53:24;;;;;;;13.73;8.07;;;;;;;21.71;56.78;94175.34;5062881;28;20024;-76
2022/08/10 06:55:56;;;;;;;12.40;8.83;;;;;;;21.76;58.13;94172.31;5062514;28;20032;-77
2022/08/10 06:58:24;;;;;;;;;;;;;;;21.85;58.44;94174.69;5063147;28;20031;-78
2022/08/10 07:00:51;;;;;;;20.92;9.93;;;;;;;21.87;58.90;94175.09;5062666;28;19912;-73
2022/08/10 07:03:37;;;;;;;11.45;7.88;;;;;;;21.97;56.39;94174.38;5062770;28;20033;-73
2022/08/10 07:06:05;;;;;;;11.98;8.35;;;;;;;22.06;55.38;94162.41;5062737;28;20080;-73
2022/08/10 07:08:32;;;;;;;18.48;8.80;;;;;;;22.19;56.79;94161.72;5061528;28;20092;-73
2022/08/10 07:11:00;;;;;;;11.45;8.77;;;;;;;22.19;56.36;94160.94;5062419;28;20307;-73
2022/08/10 07:13:28;;;;;;;11.00;8.50;;;;;;;22.30;55.29;94166.47;5062666;28;20916;-74
2022/08/10 07:15:54;;;;;;;11.70;7.57;;;;;;;22.40;54.95;94165.72;5062401;28;20064;-74
2022/08/10 07:18:21;;;;;;;13.50;8.57;;;;;;;22.49;54.52;94160.75;5061339;28;20325;-73
2022/08/10 07:20:47;;;;;;;15.23;7.72;;;;;;;22.60;53.84;94164.28;5062430;28;20219;-72
2022/08/10 07:23:13;;;;;;;9.80;6.55;;;;;;;22.68;52.65;94161.59;5062397;28;20096;-73
2022/08/10 07:25:41;;;;;;;14.13;7.75;;;;;;;22.71;52.30;94158.88;5062448;28;20312;-73
2022/08/10 07:28:07;;;;;;;11.15;7.88;;;;;;;22.80;53.03;94172.13;5062603;28;20108;-74
2022/08/10 07:30:37;;;;;;;13.85;8.32;;;;;;;22.87;52.27;94161.25;5062761;28;20025;-73
2022/08/10 07:33:04;;;;;;;11.70;7.68;;;;;;;23.01;51.80;94157.78;5062735;28;20036;-75
2022/08/10 07:35:31;;;;;;;12.73;7.63;;;;;;;23.10;51.42;94160.16;5062362;28;20323;-73
2022/08/10 07:37:58;;;;;;;12.50;7.78;;;;;;;23.16;51.32;94166.78;5062519;28;20263;-75
2022/08/10 07:40:25;;;;;;;14.27;7.85;;;;;;;23.15;50.53;94157.06;5062407;28;20047;-75
2022/08/10 07:42:54;;;;;;;15.73;7.70;;;;;;;23.17;50.10;94152.03;5062327;28;20052;-73
2022/08/10 07:45:20;;;;;;;16.40;8.15;;;;;;;23.21;50.35;94163.69;5062221;28;20323;-73
2022/08/10 07:48:01;;;;;;;9.73;6.18;;;;;;;23.21;48.04;94150.88;5062456;28;20096;-73
2022/08/10 07:50:28;;;;;;;8.02;5.95;;;;;;;23.22;47.58;94151.63;5062185;28;20028;-73
2022/08/10 07:52:59;;;;;;;11.20;7.65;;;;;;;23.26;50.66;94166.00;5062230;28;20343;-73
2022/08/10 07:55:24;;;;;;;16.73;9.05;;;;;;;23.32;50.77;94152.81;5062363;28;20033;-73
2022/08/10 07:57:53;;;;;;;12.63;8.02;;;;;;;23.37;50.05;94149.72;5062199;28;20314;-73
2022/08/10 08:00:19;;;;;;;10.63;7.50;;;;;;;23.43;49.52;94146.22;5062105;28;20032;-73
2022/08/10 08:02:50;;;;;;;9.60;7.68;;;;;;;23.47;49.85;94143.50;5062219;28;20262;-74
2022/08/10 08:05:19;;;;;;;13.52;8.15;;;;;;;23.60;49.68;94144.66;5062035;28;20037;-74
2022/08/10 08:07:47;;;;;;;14.02;8.70;;;;;;;23.64;49.22;94141.94;5062064;28;20056;-74
2022/08/10 08:10:15;;;;;;;19.25;7.65;;;;;;;23.64;49.58;94147.41;5062181;28;20042;-73
2022/08/10 08:12:41;;;;;;;15.32;7.30;;;;;;;23.71;47.95;94146.59;5061865;28;20047;-73
2022/08/10 08:15:13;;;;;;;9.82;7.55;;;;;;;23.76;47.85;94147.00;5061901;28;20040;-73
2022/08/10 08:17:40;;;;;;;9.93;6.90;;;;;;;23.85;46.93;94138.44;5061796;28;20025;-74
2022/08/10 08:20:08;;;;;;;12.50;7.30;;;;;;;23.88;47.57;94140.41;5062053;28;20025;-76
2022/08/10 08:22:35;;;;;;;17.42;7.28;;;;;;;23.90;47.18;94142.75;5062058;28;20029;-75
2022/08/10 08:25:02;;;;;;;13.43;7.30;;;;;;;23.92;48.22;94132.25;5065380;28;20033;-74
2022/08/10 08:27:28;;;;;;;9.40;6.47;;;;;;;24.00;47.15;94131.84;5065511;28;20029;-75
2022/08/10 08:29:54;;;;;;;16.52;7.13;;;;;;;23.99;46.87;94140.38;5065534;28;20044;-76
2022/08/10 08:32:23;;;;;;;14.82;6.22;;;;;;;24.11;45.71;94137.25;5065469;28;20029;-75
2022/08/10 08:34:53;;;;;;;10.48;6.28;;;;;;;24.24;45.56;94137.59;5065529;28;20017;-78
2022/08/10 08:37:21;;;;;;;9.93;6.53;;;;;;;24.27;44.83;94127.88;5065264;28;20271;-77
2022/08/10 08:39:47;;;;;;;11.88;7.15;;;;;;;24.32;45.26;94132.91;5065365;28;20016;-77
2022/08/10 08:42:26;;;;;;;13.48;6.55;;;;;;;24.37;44.15;94127.06;5065379;28;20040;-77
2022/08/10 08:45:19;;;;;;;12.77;6.22;;;;;;;24.46;44.30;94124.69;5065178;28;20028;-76
2022/08/10 08:48:19;;;;;;;13.15;6.93;;;;;;;24.60;45.61;94115.72;5064901;28;20059;-76
2022/08/10 08:51:12;;;;;;;9.73;6.05;;;;;;;24.69;45.43;94120.72;5046760;28;20033;-76
2022/08/10 08:54:18;;;;;;;11.40;6.05;;;;;;;24.77;44.42;94128.47;5065092;28;20033;-75
2022/08/10 08:57:15;;;;;;;10.13;6.30;;;;;;;24.82;44.09;94132.72;5064843;28;20063;-74
2022/08/10 09:00:04;;;;;;;11.13;5.78;;;;;;;24.84;42.96;94130.38;5064726;28;20338;-73
2022/08/10 09:02:50;;;;;;;7.70;5.57;;;;;;;24.77;43.97;94133.13;5064956;28;20024;-72
2022/08/10 09:05:48;;;;;;;8.88;5.90;;;;;;;24.83;43.81;94123.38;5064692;28;20318;-72
2022/08/10 09:08:16;;;;;;;10.98;6.00;;;;;;;24.89;43.61;94119.03;5064519;28;20094;-72
2022/08/10 09:11:00;;;;;;;11.35;5.85;;;;;;;25.02;43.17;94117.44;5064538;28;20032;-73
2022/08/10 09:14:26;;;;;;;15.52;6.45;;;;;;;25.15;43.04;94125.13;5064676;28;20050;-72
2022/08/10 09:17:01;;;;;;;15.77;6.03;;;;;;;25.16;43.56;94115.78;5053476;28;20064;-72
2022/08/10 09:20:05;;;;;;;9.68;5.50;;;;;;;25.24;42.92;94111.88;5064343;28;20024;-72
2022/08/10 09:22:31;;;;;;;18.67;6.03;;;;;;;25.29;43.40;94114.16;5042923;28;20033;-72
2022/08/10 09:25:15;;;;;;;8.50;5.72;;;;;;;25.38;43.61;94110.97;5060225;28;20029;-73
2022/08/10 09:27:44;;;;;;;9.70;5.68;;;;;;;25.46;44.06;94117.91;5064431;28;20193;-75
2022/08/10 09:30:15;;;;;;;14.23;6.85;;;;;;;25.52;42.19;94101.91;5063983;28;20024;-72
2022/08/10 09:32:51;;;;;;;20.52;6.78;;;;;;;25.42;43.26;94117.16;5064269;28;20029;-73
2022/08/10 09:35:23;;;;;;;8.73;6.50;;;;;;;25.35;43.98;94107.09;5064415;28;20056;-73
2022/08/10 09:38:06;;;;;;;11.65;5.72;;;;;;;25.39;44.10;94094.19;5064185;28;20021;-72
2022/08/10 09:40:47;;;;;;;14.80;6.38;;;;;;;25.53;43.56;94106.19;5064091;28;20029;-72
2022/08/10 09:43:41;;;;;;;14.93;6.10;;;;;;;25.54;42.93;94103.03;5064110;28;20025;-72
2022/08/10 09:46:32;;;;;;;9.82;5.40;;;;;;;25.59;41.61;94104.56;5061695;28;20044;-72
2022/08/10 09:49:24;;;;;;;8.60;5.72;;;;;;;25.62;41.70;94092.84;5064010;28;20044;-72
2022/08/10 09:52:05;;;;;;;7.25;5.00;;;;;;;25.75;41.82;94095.88;5063723;28;20029;-73
2022/08/10 09:54:56;;;;;;;7.13;5.43;;;;;;;25.95;41.86;94094.13;5063999;28;20031;-73
2022/08/10 09:57:48;;;;;;;11.18;5.55;;;;;;;26.08;39.76;94083.44;5063731;28;20033;-77
2022/08/10 10:00:18;;;;;;;8.02;5.25;;;;;;;26.18;39.85;94085.28;5063728;28;20030;-78
2022/08/10 10:03:05;;;;;;;9.05;4.90;;;;;;;26.25;40.76;94083.66;5062539;28;20040;-78
2022/08/10 10:06:11;;;;;;;11.10;4.28;;;;;;;26.36;38.44;94081.59;5062796;28;20112;-77
2022/08/10 10:08:39;;;;;;;9.88;4.90;;;;;;;26.39;38.56;94088.94;5062241;28;20017;-77
2022/08/10 10:11:19;;;;;;;11.82;4.90;;;;;;;26.46;39.13;94094.34;5062364;28;20070;-77
2022/08/10 10:14:19;;;;;;;7.05;3.55;;;;;;;26.37;38.21;94094.03;5062373;28;20025;-77
2022/08/10 10:17:09;;;;;;;16.00;5.20;;;;;;;26.48;38.13;94083.78;5062596;28;20037;-77
2022/08/10 10:19:43;;;;;;;6.80;3.45;;;;;;;26.60;37.56;94083.25;5063342;28;20072;-78
2022/08/10 10:22:33;;;;;;;9.85;3.65;;;;;;;26.70;37.35;94084.28;5063057;28;20029;-77
2022/08/10 10:25:05;;;;;;;6.18;3.55;;;;;;;26.91;36.86;94075.03;5063108;28;20044;-77
2022/08/10 10:27:47;;;;;;;5.70;3.88;;;;;;;26.99;37.20;94076.47;5062034;28;20032;-77
2022/08/10 10:30:16;;;;;;;6.63;3.30;;;;;;;27.07;36.90;94081.81;5063386;28;20130;-77
2022/08/10 10:33:06;;;;;;;5.63;2.85;;;;;;;27.26;36.55;94075.72;5063044;28;20025;-76
2022/08/10 10:35:37;;;;;;;6.95;3.92;;;;;;;27.40;35.81;94066.50;5063041;28;20029;-75
2022/08/10 10:38:07;;;;;;;8.32;3.60;;;;;;;27.50;36.31;94075.69;5063094;28;20020;-75
2022/08/10 10:40:40;;;;;;;8.38;3.40;;;;;;;27.51;35.83;94071.78;5063044;28;20223;-75
2022/08/10 10:43:31;;;;;;;10.10;3.95;;;;;;;27.58;36.12;94072.44;5063192;28;20099;-76
2022/08/10 10:46:11;;;;;;;16.73;3.30;;;;;;;27.72;35.84;94063.22;5062490;28;20028;-76
2022/08/10 10:48:46;;;;;;;6.80;3.35;;;;;;;27.78;36.31;94055.28;5062967;28;20025;-76
2022/08/10 10:51:25;;;;;;;8.80;3.20;;;;;;;27.91;36.77;94056.25;5062790;28;20025;-75
2022/08/10 10:54:11;;;;;;;4.70;2.83;;;;;;;28.04;36.50;94052.88;5062910;28;20081;-75
2022/08/10 10:57:00;;;;;;;6.20;3.35;;;;;;;28.09;35.09;94055.91;5062672;28;20032;-76
2022/08/10 10:59:44;;;;;;;7.60;3.70;;;;;;;28.12;35.85;94054.28;5062896;28;20100;-75
2022/08/10 11:02:47;;;;;;;9.57;4.60;;;;;;;28.05;36.44;94052.47;5062624;28;20027;-76
2022/08/10 11:05:40;;;;;;;7.68;3.42;;;;;;;28.03;35.92;94052.13;5062861;28;20029;-76
2022/08/10 11:08:20;;;;;;;6.68;3.38;;;;;;;28.07;36.21;94060.25;5052615;28;20039;-74
2022/08/10 11:10:54;;;;;;;6.78;3.33;;;;;;;28.07;36.34;94052.81;5062541;28;20218;-76
2022/08/10 11:13:53;;;;;;;7.45;4.47;;;;;;;28.02;35.86;94056.81;5062721;28;20044;-77
2022/08/10 11:16:34;;;;;;;6.38;3.50;;;;;;;28.05;36.41;94049.72;5062375;28;20045;-77
2022/08/10 11:19:16;;;;;;;9.80;3.28;;;;;;;28.16;35.73;94050.28;5062573;28;20025;-76
2022/08/10 11:22:02;;;;;;;10.63;3.40;;;;;;;28.19;35.89;94060.41;5062481;28;20028;-78
2022/08/10 11:24:55;;;;;;;8.02;3.67;;;;;;;28.19;35.66;94054.94;5062446;28;20029;-77
2022/08/10 11:27:31;;;;;;;9.38;3.70;;;;;;;28.19;35.60;94054.94;5062491;28;20071;-78
2022/08/10 11:30:09;;;;;;;6.00;3.35;;;;;;;28.25;35.85;94059.91;5062620;28;20116;-76
2022/08/10 11:32:40;;;;;;;5.43;3.78;;;;;;;28.35;35.09;94046.00;5062810;28;20077;-77
2022/08/10 11:35:25;;;;;;;10.40;3.72;;;;;;;28.36;35.25;94052.25;5062478;28;20029;-76
2022/08/10 11:38:05;;;;;;;5.85;3.30;;;;;;;28.33;35.30;94047.59;5062427;28;20040;-76
2022/08/10 11:40:46;;;;;;;6.75;3.78;;;;;;;28.34;35.92;94046.44;5062586;28;20283;-76
2022/08/10 11:43:25;;;;;;;7.65;3.38;;;;;;;28.44;35.33;94041.94;5062501;28;20025;-76
2022/08/10 11:46:20;;;;;;;8.40;3.00;;;;;;;28.39;35.19;94040.44;5062344;28;20045;-76
2022/08/10 11:48:51;;;;;;;5.85;3.65;;;;;;;28.39;35.64;94037.69;5061399;28;20147;-77
2022/08/10 11:51:42;;;;;;;9.88;3.20;;;;;;;28.52;34.60;94032.38;5061196;28;20295;-76
2022/08/10 11:54:31;;;;;;;5.75;3.03;;;;;;;28.51;34.95;94037.06;5062229;28;20031;-76
2022/08/10 11:56:59;;;;;;;9.93;3.05;;;;;;;28.59;34.58;94021.25;5062025;28;20037;-77
2022/08/10 12:02:14;;;;;;;8.65;3.58;;;;;;;28.75;34.50;94026.00;5066062;28;20100;-77